createdAt,value
2023-01-31T00:00:12.403Z,91.22
2023-01-31T00:02:45.861Z,91.28
2023-01-31T00:05:20.550Z,91.80
2023-01-31T00:07:54.251Z,92.51
2023-01-31T00:10:29.379Z,91.20
2023-01-31T00:13:03.515Z,91.98
2023-01-31T00:15:37.351Z,91.32
2023-01-31T00:18:10.957Z,92.20
2023-01-31T00:20:44.202Z,91.70
2023-01-31T00:23:17.851Z,91.71
2023-01-31T00:25:52.676Z,91.87
2023-01-31T00:28:26.335Z,91.74
2023-01-31T00:30:59.978Z,92.27
2023-01-31T00:33:33.108Z,92.34
2023-01-31T00:36:08.316Z,91.61
2023-01-31T00:38:42.251Z,91.88
2023-01-31T00:41:17.063Z,91.67
2023-01-31T00:43:51.199Z,91.99
2023-01-31T00:46:25.122Z,91.21
2023-01-31T00:48:58.393Z,91.77
2023-01-31T00:51:31.790Z,91.86
2023-01-31T00:54:05.303Z,91.74
2023-01-31T00:56:40.037Z,92.10
2023-01-31T00:59:13.529Z,91.72
2023-01-31T01:01:47.017Z,92.24
2023-01-31T01:04:20.458Z,92.01
2023-01-31T01:06:54.140Z,93.16
2023-01-31T01:09:27.490Z,92.66
2023-01-31T01:12:03.167Z,92.42
2023-01-31T01:14:37.184Z,92.85
2023-01-31T01:17:11.011Z,92.68
2023-01-31T01:19:44.354Z,93.85
2023-01-31T01:22:17.725Z,93.32
2023-01-31T01:24:51.058Z,93.58
2023-01-31T01:27:27.370Z,93.49
2023-01-31T01:30:02.141Z,93.15
2023-01-31T01:32:36.355Z,93.86
2023-01-31T01:35:10.962Z,94.17
2023-01-31T01:37:44.160Z,93.48
2023-01-31T01:40:17.571Z,94.04
2023-01-31T01:42:52.338Z,94.11
2023-01-31T01:45:26.128Z,94.31
2023-01-31T01:48:00.911Z,94.73
2023-01-31T01:50:37.868Z,93.94
2023-01-31T01:53:15.551Z,94.67
2023-01-31T01:55:51.758Z,94.88
2023-01-31T01:58:30.152Z,94.23
2023-01-31T02:01:05.224Z,94.00
2023-01-31T02:03:39.821Z,93.38
2023-01-31T02:06:13.669Z,93.89
2023-01-31T02:08:47.034Z,93.47
2023-01-31T02:11:24.249Z,94.25
2023-01-31T02:14:03.588Z,92.91
2023-01-31T02:16:37.555Z,93.73
2023-01-31T02:19:21.164Z,93.30
2023-01-31T02:22:15.592Z,93.36
2023-01-31T02:25:24.947Z,94.02
2023-01-31T02:28:46.885Z,93.92
2023-01-31T02:31:55.749Z,93.69
2023-01-31T02:34:38.443Z,93.46
2023-01-31T02:37:24.343Z,93.60
2023-01-31T02:40:05.392Z,94.24
2023-01-31T02:42:49.090Z,94.00
2023-01-31T02:45:32.759Z,94.26
2023-01-31T02:48:20.287Z,94.46
2023-01-31T02:51:01.892Z,93.72
2023-01-31T02:53:37.322Z,93.92
2023-01-31T02:56:20.443Z,93.39
2023-01-31T02:58:59.205Z,94.13
2023-01-31T03:01:36.723Z,93.87
2023-01-31T03:04:12.458Z,94.46
2023-01-31T03:07:00.033Z,94.24
2023-01-31T03:09:40.944Z,94.12
2023-01-31T03:12:37.458Z,95.13
2023-01-31T03:15:25.618Z,95.04
2023-01-31T03:18:02.159Z,95.19
2023-01-31T03:20:44.187Z,95.38
2023-01-31T03:23:22.481Z,95.46
2023-01-31T03:25:58.915Z,95.77
2023-01-31T03:28:37.156Z,95.84
2023-01-31T03:31:18.697Z,95.68
2023-01-31T03:33:55.981Z,96.60
2023-01-31T03:36:34.816Z,96.69
2023-01-31T03:39:17.795Z,95.61
2023-01-31T03:41:58.871Z,96.54
2023-01-31T03:44:40.748Z,96.29
2023-01-31T03:47:18.389Z,96.76
2023-01-31T03:49:54.003Z,96.72
2023-01-31T03:52:32.570Z,96.00
2023-01-31T03:55:12.048Z,96.39
2023-01-31T03:57:47.473Z,96.61
2023-01-31T04:00:23.655Z,95.97
2023-01-31T04:03:03.233Z,96.45
2023-01-31T04:05:37.096Z,96.23
2023-01-31T04:08:10.983Z,96.07
2023-01-31T04:10:45.935Z,96.34
2023-01-31T04:13:19.748Z,96.20
2023-01-31T04:15:53.720Z,97.17
2023-01-31T04:18:27.358Z,96.84
2023-01-31T04:21:00.808Z,96.51
2023-01-31T04:23:34.327Z,97.17
2023-01-31T04:26:09.294Z,97.47
2023-01-31T04:28:42.744Z,97.64
2023-01-31T04:31:16.169Z,97.44
2023-01-31T04:33:49.799Z,96.94
2023-01-31T04:36:23.437Z,97.08
2023-01-31T04:38:56.708Z,97.43
2023-01-31T04:41:32.003Z,97.28
2023-01-31T04:44:05.709Z,98.07
2023-01-31T04:46:39.135Z,97.98
2023-01-31T04:49:12.548Z,97.94
2023-01-31T04:51:46.248Z,97.80
2023-01-31T04:54:19.597Z,97.65
2023-01-31T04:56:54.397Z,98.48
2023-01-31T04:59:27.660Z,98.92
2023-01-31T05:02:01.955Z,99.11
2023-01-31T05:04:35.585Z,99.03
2023-01-31T05:07:09.191Z,97.94
2023-01-31T05:09:44.066Z,98.10
2023-01-31T05:12:19.203Z,98.23
2023-01-31T05:14:53.087Z,97.93
2023-01-31T05:17:29.751Z,97.97
2023-01-31T05:20:04.007Z,98.81
2023-01-31T05:22:37.783Z,99.13
2023-01-31T05:25:11.350Z,98.92
2023-01-31T05:27:45.949Z,98.87
2023-01-31T05:30:20.087Z,98.16
2023-01-31T05:32:53.601Z,98.15
2023-01-31T05:35:27.048Z,98.30
2023-01-31T05:38:03.389Z,98.69
2023-01-31T05:40:37.161Z,98.40
2023-01-31T05:43:11.795Z,98.22
2023-01-31T05:45:45.568Z,98.19
2023-01-31T05:48:18.754Z,98.93
2023-01-31T05:50:52.366Z,99.10
2023-01-31T05:53:26.327Z,98.38
2023-01-31T05:56:00.343Z,98.14
2023-01-31T05:58:35.146Z,98.76
2023-01-31T06:01:08.502Z,99.17
2023-01-31T06:03:41.680Z,98.80
2023-01-31T06:06:15.589Z,98.57
2023-01-31T06:08:49.372Z,98.20
2023-01-31T06:11:23.032Z,98.74
2023-01-31T06:13:58.856Z,98.36
2023-01-31T06:16:32.366Z,97.89
2023-01-31T06:19:05.800Z,97.79
2023-01-31T06:21:39.274Z,97.75
2023-01-31T06:24:12.814Z,98.00
2023-01-31T06:26:46.291Z,98.74
2023-01-31T06:29:20.970Z,98.62
2023-01-31T06:31:54.799Z,97.82
2023-01-31T06:34:28.367Z,98.00
2023-01-31T06:37:01.961Z,98.31
2023-01-31T06:39:35.434Z,97.01
2023-01-31T06:42:09.135Z,97.06
2023-01-31T06:44:43.964Z,97.51
2023-01-31T06:47:17.463Z,97.31
2023-01-31T06:49:50.819Z,97.40
2023-01-31T06:52:23.996Z,91.51
2023-01-31T06:54:57.248Z,89.57
2023-01-31T06:57:30.817Z,89.82
2023-01-31T07:00:08.016Z,86.11
2023-01-31T07:02:41.122Z,83.70
2023-01-31T07:05:14.680Z,82.83
2023-01-31T07:07:47.984Z,83.41
2023-01-31T07:10:21.207Z,82.36
2023-01-31T07:12:57.848Z,83.62
2023-01-31T07:15:33.544Z,81.56
2023-01-31T07:18:07.779Z,80.99
2023-01-31T07:20:41.208Z,80.90
2023-01-31T07:23:14.559Z,80.50
2023-01-31T07:25:47.875Z,81.05
2023-01-31T07:28:21.367Z,79.74
2023-01-31T07:30:56.580Z,79.41
2023-01-31T07:33:30.239Z,80.75
2023-01-31T07:36:04.735Z,80.27
2023-01-31T07:38:38.430Z,78.65
2023-01-31T07:41:12.835Z,77.79
2023-01-31T07:43:46.527Z,77.37
2023-01-31T07:46:21.536Z,77.14
2023-01-31T07:48:54.834Z,77.51
2023-01-31T07:51:28.080Z,77.77
2023-01-31T07:54:01.503Z,76.08
2023-01-31T07:56:35.085Z,75.30
2023-01-31T07:59:08.329Z,75.37
2023-01-31T08:02:00.832Z,75.37
2023-01-31T08:04:36.412Z,73.97
2023-01-31T08:07:10.345Z,73.95
2023-01-31T08:09:47.331Z,73.43
2023-01-31T08:12:21.371Z,73.41
2023-01-31T08:14:55.250Z,71.97
2023-01-31T08:17:30.581Z,73.06
2023-01-31T08:20:04.299Z,72.75
2023-01-31T08:22:37.668Z,72.28
2023-01-31T08:25:11.466Z,72.07
2023-01-31T08:27:44.724Z,71.98
2023-01-31T08:30:18.510Z,72.91
2023-01-31T08:32:53.280Z,72.80
2023-01-31T08:35:26.860Z,72.35
2023-01-31T08:38:15.409Z,72.03
2023-01-31T08:40:50.219Z,72.83
2023-01-31T08:43:23.502Z,72.21
2023-01-31T08:45:57.029Z,72.24
2023-01-31T08:48:33.646Z,71.71
2023-01-31T08:51:10.103Z,71.82
2023-01-31T08:53:45.053Z,71.34
2023-01-31T08:56:21.507Z,71.97
2023-01-31T08:58:55.932Z,71.25
2023-01-31T09:01:30.353Z,71.53
2023-01-31T09:04:05.732Z,72.50
2023-01-31T09:06:39.038Z,72.29
2023-01-31T09:09:12.587Z,71.44
2023-01-31T09:11:46.775Z,71.38
2023-01-31T09:14:20.788Z,72.11
2023-01-31T09:16:55.352Z,70.70
2023-01-31T09:19:31.095Z,68.83
2023-01-31T09:22:04.479Z,68.18
2023-01-31T09:24:38.215Z,67.87
2023-01-31T09:27:11.485Z,67.38
2023-01-31T09:29:44.629Z,66.60
2023-01-31T09:32:18.281Z,67.25
2023-01-31T09:34:53.110Z,66.94
2023-01-31T09:37:26.223Z,67.42
2023-01-31T09:39:59.553Z,66.10
2023-01-31T09:42:37.220Z,66.35
2023-01-31T09:45:15.434Z,66.19
2023-01-31T09:47:52.008Z,66.00
2023-01-31T09:50:34.675Z,66.41
2023-01-31T09:53:11.420Z,66.16
2023-01-31T09:55:51.357Z,65.64
2023-01-31T09:58:34.885Z,65.51
2023-01-31T10:01:16.433Z,65.87
2023-01-31T10:04:00.710Z,65.46
2023-01-31T10:06:42.828Z,65.04
2023-01-31T10:09:24.928Z,64.52
2023-01-31T10:12:04.913Z,65.40
2023-01-31T10:14:46.968Z,65.44
2023-01-31T10:17:27.035Z,65.70
2023-01-31T10:20:08.078Z,65.17
2023-01-31T10:22:47.615Z,65.32
2023-01-31T10:25:36.026Z,65.34
2023-01-31T10:28:15.260Z,65.65
2023-01-31T10:30:56.704Z,66.15
2023-01-31T10:33:40.141Z,66.52
2023-01-31T10:36:20.399Z,66.33
2023-01-31T10:39:03.939Z,65.36
2023-01-31T10:41:46.382Z,65.13
2023-01-31T10:44:25.829Z,65.24
2023-01-31T10:47:00.613Z,64.34
2023-01-31T10:49:34.079Z,64.50
2023-01-31T10:52:28.583Z,63.36
2023-01-31T10:55:24.564Z,64.14
2023-01-31T10:57:59.241Z,61.56
2023-01-31T11:00:34.678Z,60.28
2023-01-31T11:03:08.563Z,60.41
2023-01-31T11:05:47.512Z,59.51
2023-01-31T11:08:32.591Z,59.03
2023-01-31T11:11:10.272Z,59.56
2023-01-31T11:13:58.201Z,59.65
2023-01-31T11:16:35.545Z,59.16
2023-01-31T11:19:20.925Z,59.81
2023-01-31T11:21:55.799Z,61.62
2023-01-31T11:24:31.600Z,61.98
2023-01-31T11:27:10.412Z,61.45
2023-01-31T11:29:51.618Z,61.18
2023-01-31T11:32:27.706Z,60.10
2023-01-31T11:35:03.728Z,60.80
2023-01-31T11:37:53.685Z,60.98
2023-01-31T11:40:33.470Z,61.41
2023-01-31T11:43:26.031Z,59.46
2023-01-31T11:46:01.167Z,60.32
2023-01-31T11:48:42.351Z,60.97
2023-01-31T11:51:32.322Z,61.39
2023-01-31T11:54:06.547Z,60.15
2023-01-31T11:56:40.012Z,59.59
2023-01-31T11:59:21.027Z,59.04
2023-01-31T12:01:57.575Z,59.05
2023-01-31T12:04:36.287Z,60.29
2023-01-31T12:07:23.619Z,59.19
2023-01-31T12:09:56.861Z,59.75
2023-01-31T12:12:35.730Z,58.17
2023-01-31T12:15:17.290Z,58.61
2023-01-31T12:17:51.827Z,58.83
2023-01-31T12:20:39.513Z,57.90
2023-01-31T12:23:25.688Z,57.69
2023-01-31T12:26:09.691Z,58.96
2023-01-31T12:28:59.572Z,58.52
2023-01-31T12:31:49.468Z,62.28
2023-01-31T12:34:50.501Z,63.67
2023-01-31T12:37:42.952Z,64.80
2023-01-31T12:40:39.135Z,63.56
2023-01-31T12:43:34.714Z,63.51
2023-01-31T12:46:14.255Z,65.48
2023-01-31T12:49:16.198Z,65.52
2023-01-31T12:52:00.966Z,65.18
2023-01-31T12:54:49.263Z,66.23
2023-01-31T12:57:31.994Z,67.10
2023-01-31T13:00:23.527Z,67.11
2023-01-31T13:03:25.193Z,66.57
2023-01-31T13:06:05.114Z,67.35
2023-01-31T13:08:42.351Z,67.24
2023-01-31T13:11:20.291Z,66.78
2023-01-31T13:13:58.465Z,67.14
2023-01-31T13:16:37.005Z,66.54
2023-01-31T13:19:19.338Z,66.00
2023-01-31T13:21:59.090Z,67.13
2023-01-31T13:24:38.342Z,67.08
2023-01-31T13:27:20.187Z,66.51
2023-01-31T13:30:00.132Z,66.82
2023-01-31T13:32:39.652Z,65.57
2023-01-31T13:35:22.439Z,65.53
2023-01-31T13:38:03.380Z,66.09
2023-01-31T13:40:43.062Z,66.58
2023-01-31T13:43:18.057Z,66.08
2023-01-31T13:45:58.165Z,65.59
2023-01-31T13:48:38.573Z,64.06
2023-01-31T13:51:17.987Z,64.66
2023-01-31T13:53:58.151Z,64.34
2023-01-31T13:56:35.080Z,64.84
2023-01-31T13:59:09.752Z,67.44
2023-01-31T14:01:47.832Z,67.95
2023-01-31T14:04:39.107Z,67.41
2023-01-31T14:07:21.661Z,67.97
2023-01-31T14:10:32.639Z,68.69
2023-01-31T14:13:37.840Z,67.99
2023-01-31T14:16:42.915Z,67.53
2023-01-31T14:19:56.808Z,66.61
2023-01-31T14:22:34.895Z,68.13
2023-01-31T14:25:15.591Z,67.83
2023-01-31T14:28:04.143Z,66.96
2023-01-31T14:30:41.897Z,65.96
2023-01-31T14:33:26.051Z,66.49
2023-01-31T14:36:35.561Z,67.43
2023-01-31T14:39:35.441Z,67.51
2023-01-31T14:42:44.477Z,67.86
2023-01-31T14:45:32.511Z,67.90
2023-01-31T14:48:28.430Z,68.20
2023-01-31T14:51:14.462Z,67.99
2023-01-31T14:54:29.284Z,67.68
2023-01-31T14:57:14.084Z,69.42
2023-01-31T14:59:56.755Z,69.55
2023-01-31T15:02:57.004Z,69.10
2023-01-31T15:05:45.564Z,70.00
2023-01-31T15:08:42.150Z,70.16
2023-01-31T15:11:42.562Z,71.96
2023-01-31T15:14:37.712Z,69.28
2023-01-31T15:17:33.066Z,70.35
2023-01-31T15:20:18.416Z,71.38
2023-01-31T15:22:58.978Z,72.34
2023-01-31T15:25:36.096Z,73.42
2023-01-31T15:28:13.927Z,73.99
2023-01-31T15:30:48.433Z,74.65
2023-01-31T15:33:28.385Z,74.56
2023-01-31T15:36:05.476Z,74.41
2023-01-31T15:38:45.077Z,75.10
2023-01-31T15:41:22.587Z,74.46
2023-01-31T15:43:57.519Z,75.09
2023-01-31T15:46:32.286Z,74.32
2023-01-31T15:49:37.949Z,74.44
2023-01-31T15:52:16.099Z,73.40
2023-01-31T15:54:55.927Z,73.63
2023-01-31T15:57:36.873Z,73.90
2023-01-31T16:00:19.818Z,74.11
2023-01-31T16:03:00.636Z,73.97
2023-01-31T16:05:35.999Z,74.69
2023-01-31T16:08:26.533Z,75.85
2023-01-31T16:11:04.866Z,75.55
2023-01-31T16:13:41.029Z,75.21
2023-01-31T16:16:15.911Z,75.62
2023-01-31T16:18:52.524Z,76.57
2023-01-31T16:21:29.027Z,77.10
2023-01-31T16:24:09.435Z,77.57
2023-01-31T16:26:56.879Z,77.42
2023-01-31T16:29:40.321Z,77.97
2023-01-31T16:32:18.056Z,77.90
2023-01-31T16:34:57.897Z,78.38
2023-01-31T16:37:35.526Z,77.62
2023-01-31T16:40:21.013Z,77.83
2023-01-31T16:43:10.240Z,78.07
2023-01-31T16:45:53.031Z,78.35
2023-01-31T16:48:29.225Z,78.02
2023-01-31T16:51:28.128Z,78.50
2023-01-31T16:54:20.603Z,78.82
2023-01-31T16:57:21.401Z,79.02
2023-01-31T16:59:56.512Z,79.30
2023-01-31T17:02:32.848Z,79.73
2023-01-31T17:05:16.953Z,80.30
2023-01-31T17:07:50.701Z,80.57
2023-01-31T17:10:27.308Z,80.37
2023-01-31T17:13:04.793Z,80.73
2023-01-31T17:15:42.141Z,80.67
2023-01-31T17:18:15.880Z,81.42
2023-01-31T17:20:50.949Z,80.69
2023-01-31T17:23:24.309Z,81.59
2023-01-31T17:25:57.964Z,81.43
2023-01-31T17:28:31.568Z,81.21
2023-01-31T17:31:07.004Z,81.23
2023-01-31T17:33:40.278Z,81.60
2023-01-31T17:36:14.125Z,81.90
2023-01-31T17:38:52.710Z,81.95
2023-01-31T17:41:31.660Z,82.04
2023-01-31T17:44:08.446Z,82.26
2023-01-31T17:46:43.678Z,81.74
2023-01-31T17:49:17.822Z,82.11
2023-01-31T17:52:01.019Z,82.93
2023-01-31T17:54:35.716Z,83.67
2023-01-31T17:57:10.210Z,84.46
2023-01-31T17:59:44.543Z,85.55
2023-01-31T18:02:21.727Z,85.87
2023-01-31T18:05:01.812Z,87.04
2023-01-31T18:07:36.630Z,87.17
2023-01-31T18:10:13.628Z,86.46
2023-01-31T18:12:52.048Z,87.88
2023-01-31T18:15:28.801Z,88.83
2023-01-31T18:18:09.416Z,89.28
2023-01-31T18:20:49.888Z,89.88
2023-01-31T18:23:27.467Z,89.66
2023-01-31T18:26:04.811Z,89.82
2023-01-31T18:28:42.443Z,89.66
2023-01-31T18:31:18.208Z,89.97
2023-01-31T18:33:54.169Z,89.80
2023-01-31T18:36:28.551Z,89.76
2023-01-31T18:39:03.551Z,90.60
2023-01-31T18:41:38.342Z,90.71
2023-01-31T18:44:15.984Z,89.87
2023-01-31T18:46:53.402Z,89.77
2023-01-31T18:49:30.495Z,89.44
2023-01-31T18:52:07.176Z,89.57
2023-01-31T18:54:42.273Z,89.95
2023-01-31T18:57:16.918Z,89.33
2023-01-31T18:59:51.660Z,90.36
2023-01-31T19:02:26.424Z,90.53
2023-01-31T19:05:03.073Z,91.96
2023-01-31T19:07:40.251Z,92.24
2023-01-31T19:10:14.747Z,91.98
2023-01-31T19:12:50.221Z,93.93
2023-01-31T19:15:25.532Z,93.81
2023-01-31T19:18:01.018Z,94.40
2023-01-31T19:20:38.639Z,96.20
2023-01-31T19:23:15.789Z,96.59
2023-01-31T19:25:50.619Z,96.11
2023-01-31T19:28:26.487Z,96.19
2023-01-31T19:31:06.554Z,95.95
2023-01-31T19:33:41.587Z,96.18
2023-01-31T19:36:23.793Z,96.05
2023-01-31T19:39:03.693Z,96.91
2023-01-31T19:41:38.531Z,95.67
2023-01-31T19:44:12.257Z,96.68
2023-01-31T19:46:47.313Z,97.26
2023-01-31T19:49:22.231Z,97.70
2023-01-31T19:51:58.258Z,98.53
2023-01-31T19:54:32.803Z,98.22
2023-01-31T19:57:06.443Z,97.69
2023-01-31T19:59:41.059Z,97.62
2023-01-31T20:02:14.575Z,98.26
2023-01-31T20:04:47.827Z,98.23
2023-01-31T20:07:23.168Z,97.70
2023-01-31T20:09:56.485Z,97.54
2023-01-31T20:12:30.434Z,97.96
2023-01-31T20:15:06.084Z,97.77
2023-01-31T20:17:39.452Z,98.45
2023-01-31T20:20:13.286Z,98.98
2023-01-31T20:22:48.198Z,99.40
2023-01-31T20:25:21.500Z,99.48
2023-01-31T20:27:54.741Z,99.93
2023-01-31T20:30:28.359Z,99.56
2023-01-31T20:33:01.869Z,99.64
2023-01-31T20:35:34.919Z,99.69
2023-01-31T20:38:10.464Z,99.20
2023-01-31T20:40:50.004Z,99.95
2023-01-31T20:43:25.999Z,100.00
2023-01-31T20:46:04.254Z,100.00
2023-01-31T20:48:38.555Z,100.00
2023-01-31T20:51:12.511Z,100.00
2023-01-31T20:53:47.012Z,100.00
2023-01-31T20:56:20.367Z,100.00
2023-01-31T20:58:53.759Z,100.00
2023-01-31T21:01:26.904Z,100.00
2023-01-31T21:04:00.506Z,100.00
2023-01-31T21:06:34.020Z,100.00
2023-01-31T21:09:08.994Z,100.00
2023-01-31T21:11:43.018Z,100.00
2023-01-31T21:14:16.721Z,100.00
2023-01-31T21:16:50.445Z,100.00
2023-01-31T21:19:23.796Z,100.00
2023-01-31T21:21:57.522Z,100.00
2023-01-31T21:24:32.585Z,100.00
2023-01-31T21:27:06.173Z,100.00
2023-01-31T21:29:39.347Z,100.00
2023-01-31T21:32:12.832Z,100.00
2023-01-31T21:34:46.223Z,100.00
2023-01-31T21:37:19.724Z,100.00
2023-01-31T21:39:54.705Z,100.00
2023-01-31T21:42:26.923Z,100.00
2023-01-31T21:45:00.021Z,100.00
2023-01-31T21:47:33.704Z,100.00
2023-01-31T21:50:08.402Z,100.00
2023-01-31T21:52:41.572Z,100.00
2023-01-31T21:55:17.300Z,100.00
2023-01-31T21:57:50.691Z,100.00
2023-01-31T22:00:24.177Z,100.00
2023-01-31T22:02:57.626Z,100.00
2023-01-31T22:05:31.047Z,100.00
2023-01-31T22:08:04.408Z,100.00
2023-01-31T22:10:39.244Z,100.00
2023-01-31T22:13:13.239Z,100.00
2023-01-31T22:15:46.898Z,100.00
2023-01-31T22:18:20.267Z,100.00
2023-01-31T22:20:54.554Z,100.00
2023-01-31T22:23:27.769Z,100.00
2023-01-31T22:26:05.496Z,100.00
2023-01-31T22:28:39.765Z,100.00
2023-01-31T22:31:14.180Z,100.00
2023-01-31T22:33:48.509Z,100.00
2023-01-31T22:36:24.198Z,100.00
2023-01-31T22:38:57.730Z,100.00
2023-01-31T22:41:32.969Z,100.00
2023-01-31T22:44:06.793Z,100.00
2023-01-31T22:46:40.101Z,100.00
2023-01-31T22:49:13.366Z,100.00
2023-01-31T22:51:46.794Z,100.00
2023-01-31T22:54:20.022Z,100.00
2023-01-31T22:56:54.941Z,100.00
2023-01-31T22:59:28.591Z,100.00
2023-01-31T23:02:02.032Z,100.00
2023-01-31T23:04:35.249Z,100.00
2023-01-31T23:07:10.600Z,100.00
2023-01-31T23:09:43.973Z,100.00
2023-01-31T23:12:18.796Z,100.00
2023-01-31T23:14:52.489Z,100.00
2023-01-31T23:17:38.515Z,99.48
2023-01-31T23:20:14.269Z,96.01
2023-01-31T23:22:47.928Z,93.96
2023-01-31T23:25:22.199Z,93.76
2023-01-31T23:27:58.336Z,93.08
2023-01-31T23:30:31.802Z,93.12
2023-01-31T23:33:05.255Z,92.21
2023-01-31T23:35:38.945Z,92.14
2023-01-31T23:38:12.207Z,91.55
2023-01-31T23:40:45.500Z,91.59
2023-01-31T23:43:20.578Z,90.75
2023-01-31T23:45:54.099Z,91.40
2023-01-31T23:48:27.530Z,91.13
2023-01-31T23:51:04.041Z,89.84
2023-01-31T23:53:37.202Z,89.89
2023-01-31T23:56:10.364Z,89.21
2023-01-31T23:58:45.325Z,89.62
